ETD4TR EGCC-OMAA
Flight info
| Callsign | ETD4TR |
|---|---|
| Flight time | N/A |
| Altitude | 37000 |
| Route | SONEX L975 DESIG L603 DOLAS DCT NAVPI DCT DODEN DCT NEGIX DCT DINKU DCT BESNI DCT LATLO DCT OBEDI DCT NAKUM DCT KFT DCT OLEZE DCT TEBLI DCT BOSNA DCT MODRA DCT MEDUX UM867 KOGAT DCT DISOR DCT FSK DCT RIKSO UN127 IMR UN135 NEKES/N0494F390 UN135 VESAR L620 BALMA UR655 CAK UN310 LATEB N310 BASEM R785 RASLI P559 TRF R23 NEVOL N318 TAMRO T503 KSA N687 KINIB Z511 GISRA L681 ORLEK DCT KUPRO N300 KAXOB Q415 UKILI |
| Aircraft | A35K/H-SDE2E3GHIJ3J4J5LM1ORWXY/LB1D1 |
Departure
| Time | 2026-05-04 23:48 |
|---|---|
| Airport | Manchester Airport (EGCC) |
Arrival
| Time | N/A |
|---|---|
| Airport | Zayed International Airport (OMAA) |
| Time | Latitude | Longitude | Altitude | Speed | Heading |
|---|---|---|---|---|---|
| 2026-05-04 23:13 | 53.36584 | -2.28305 | 256 ft | 0 kts | 222° |
| 2026-05-04 23:32 | 53.36588 | -2.28299 | 256 ft | 4 kts | 223° |
| 2026-05-04 23:32 | 53.36604 | -2.28272 | 256 ft | 3 kts | 222° |
| 2026-05-04 23:33 | 53.36625 | -2.28252 | 255 ft | 4 kts | 176° |
| 2026-05-04 23:33 | 53.36648 | -2.28267 | 255 ft | 4 kts | 139° |
| 2026-05-04 23:33 | 53.36667 | -2.28299 | 255 ft | 4 kts | 132° |
| 2026-05-04 23:33 | 53.36673 | -2.28309 | 256 ft | 0 kts | 134° |
| 2026-05-04 23:37 | 53.36671 | -2.28306 | 255 ft | 2 kts | 135° |
| 2026-05-04 23:37 | 53.36651 | -2.28273 | 255 ft | 6 kts | 134° |
| 2026-05-04 23:37 | 53.36636 | -2.28247 | 255 ft | 0 kts | 134° |
| 2026-05-04 23:39 | 53.36604 | -2.28193 | 255 ft | 22 kts | 134° |
| 2026-05-04 23:39 | 53.36494 | -2.28021 | 254 ft | 8 kts | 141° |
| 2026-05-04 23:40 | 53.36442 | -2.27955 | 254 ft | 11 kts | 151° |
| 2026-05-04 23:40 | 53.36373 | -2.27972 | 254 ft | 11 kts | 221° |
| 2026-05-04 23:40 | 53.36306 | -2.28053 | 256 ft | 12 kts | 206° |
| 2026-05-04 23:40 | 53.36220 | -2.28073 | 256 ft | 13 kts | 162° |
| 2026-05-04 23:41 | 53.36134 | -2.27957 | 256 ft | 21 kts | 134° |
| 2026-05-04 23:41 | 53.35999 | -2.27830 | 255 ft | 22 kts | 181° |
| 2026-05-04 23:41 | 53.35857 | -2.27806 | 255 ft | 15 kts | 141° |
| 2026-05-04 23:41 | 53.35774 | -2.27681 | 254 ft | 17 kts | 147° |
| 2026-05-04 23:42 | 53.35694 | -2.27560 | 252 ft | 16 kts | 89° |
| 2026-05-04 23:42 | 53.35744 | -2.27404 | 250 ft | 16 kts | 47° |
| 2026-05-04 23:42 | 53.35754 | -2.27228 | 247 ft | 17 kts | 92° |
| 2026-05-04 23:42 | 53.35810 | -2.27053 | 244 ft | 19 kts | 51° |
| 2026-05-04 23:43 | 53.35889 | -2.26864 | 241 ft | 19 kts | 56° |
| 2026-05-04 23:43 | 53.35965 | -2.26687 | 239 ft | 21 kts | 52° |
| 2026-05-04 23:43 | 53.35993 | -2.26626 | 238 ft | 5 kts | 51° |
| 2026-05-04 23:43 | 53.36058 | -2.26493 | 240 ft | 19 kts | 52° |
| 2026-05-04 23:44 | 53.36143 | -2.26315 | 233 ft | 18 kts | 49° |
| 2026-05-04 23:44 | 53.36229 | -2.26179 | 235 ft | 13 kts | 49° |
| 2026-05-04 23:44 | 53.36267 | -2.26036 | 229 ft | 15 kts | 83° |
| 2026-05-04 23:44 | 53.36285 | -2.25888 | 227 ft | 0 kts | 87° |
| 2026-05-04 23:45 | 53.36286 | -2.25859 | 227 ft | 5 kts | 90° |
| 2026-05-04 23:45 | 53.36274 | -2.25809 | 227 ft | 0 kts | 133° |
| 2026-05-04 23:47 | 53.36257 | -2.25793 | 227 ft | 12 kts | 158° |
| 2026-05-04 23:47 | 53.36137 | -2.25918 | 229 ft | 32 kts | 231° |
| 2026-05-04 23:47 | 53.35849 | -2.26515 | 240 ft | 105 kts | 231° |
| 2026-05-04 23:48 | 53.35234 | -2.27783 | 310 ft | 167 kts | 233° |
| 2026-05-04 23:48 | 53.34501 | -2.29308 | 1134 ft | 171 kts | 234° |
| 2026-05-04 23:48 | 53.33923 | -2.31170 | 1785 ft | 194 kts | 255° |
| 2026-05-04 23:48 | 53.33889 | -2.33539 | 2159 ft | 216 kts | 286° |
| 2026-05-04 23:49 | 53.34647 | -2.35807 | 2703 ft | 234 kts | 313° |
| 2026-05-04 23:49 | 53.35877 | -2.37648 | 3476 ft | 245 kts | 320° |
| 2026-05-04 23:49 | 53.37220 | -2.39476 | 4259 ft | 252 kts | 320° |
| 2026-05-04 23:49 | 53.38588 | -2.41363 | 4788 ft | 257 kts | 319° |
| 2026-05-04 23:50 | 53.39986 | -2.43259 | 4988 ft | 259 kts | 322° |
| 2026-05-04 23:50 | 53.41591 | -2.44649 | 5000 ft | 262 kts | 338° |
| 2026-05-04 23:50 | 53.42771 | -2.45275 | 4992 ft | 264 kts | 345° |
| 2026-05-04 23:50 | 53.44581 | -2.45433 | 4988 ft | 267 kts | 8° |
| 2026-05-04 23:51 | 53.46291 | -2.44238 | 5000 ft | 270 kts | 36° |
| 2026-05-04 23:51 | 53.47497 | -2.41830 | 5050 ft | 273 kts | 63° |
| 2026-05-04 23:51 | 53.48013 | -2.38769 | 5069 ft | 274 kts | 81° |
| 2026-05-04 23:51 | 53.48258 | -2.35586 | 5066 ft | 275 kts | 83° |
| 2026-05-04 23:52 | 53.48483 | -2.32399 | 5069 ft | 275 kts | 83° |
| 2026-05-04 23:52 | 53.48719 | -2.29202 | 5069 ft | 275 kts | 82° |
| 2026-05-04 23:52 | 53.48963 | -2.26008 | 5167 ft | 276 kts | 82° |
| 2026-05-04 23:52 | 53.49213 | -2.22805 | 5528 ft | 277 kts | 82° |
| 2026-05-04 23:53 | 53.49509 | -2.19603 | 6177 ft | 278 kts | 79° |
| 2026-05-04 23:53 | 53.49860 | -2.16392 | 6860 ft | 280 kts | 78° |
| 2026-05-04 23:53 | 53.50218 | -2.13153 | 7566 ft | 283 kts | 79° |
| 2026-05-04 23:53 | 53.50573 | -2.09878 | 8299 ft | 287 kts | 79° |
| 2026-05-04 23:54 | 53.50930 | -2.06545 | 9275 ft | 292 kts | 79° |
| 2026-05-04 23:54 | 53.51285 | -2.03172 | 10227 ft | 296 kts | 79° |
| 2026-05-04 23:54 | 53.51655 | -1.99646 | 10747 ft | 318 kts | 79° |
| 2026-05-04 23:54 | 53.52052 | -1.95848 | 11113 ft | 342 kts | 79° |
| 2026-05-04 23:55 | 53.52418 | -1.91809 | 11444 ft | 365 kts | 85° |
| 2026-05-04 23:55 | 53.52275 | -1.87463 | 12025 ft | 378 kts | 99° |
| 2026-05-04 23:55 | 53.51040 | -1.78711 | 13646 ft | 391 kts | 107° |
| 2026-05-04 23:56 | 53.50247 | -1.74310 | 14393 ft | 396 kts | 108° |
| 2026-05-04 23:56 | 53.49416 | -1.69874 | 15151 ft | 400 kts | 109° |
| 2026-05-04 23:56 | 53.48576 | -1.65392 | 15940 ft | 404 kts | 108° |
| 2026-05-04 23:56 | 53.47749 | -1.60917 | 16704 ft | 408 kts | 108° |
| 2026-05-04 23:57 | 53.46908 | -1.56283 | 17491 ft | 412 kts | 108° |
| 2026-05-04 23:57 | 53.46088 | -1.51720 | 18236 ft | 417 kts | 108° |
| 2026-05-04 23:57 | 53.45246 | -1.47041 | 18900 ft | 422 kts | 108° |
| 2026-05-04 23:57 | 53.44395 | -1.42309 | 19647 ft | 424 kts | 108° |
| 2026-05-04 23:58 | 53.43539 | -1.37564 | 20421 ft | 427 kts | 108° |
| 2026-05-04 23:58 | 53.42676 | -1.32785 | 21194 ft | 430 kts | 108° |
| 2026-05-04 23:58 | 53.41801 | -1.27958 | 21949 ft | 433 kts | 108° |
| 2026-05-04 23:58 | 53.40926 | -1.23113 | 22682 ft | 436 kts | 108° |
| 2026-05-04 23:59 | 53.40037 | -1.18229 | 23421 ft | 440 kts | 108° |
| 2026-05-04 23:59 | 53.39111 | -1.13325 | 24064 ft | 443 kts | 108° |
| 2026-05-04 23:59 | 53.38156 | -1.08391 | 24691 ft | 446 kts | 108° |
| 2026-05-04 23:59 | 53.37187 | -1.03428 | 25315 ft | 449 kts | 108° |
| 2026-05-05 00:00 | 53.36212 | -0.98436 | 25901 ft | 454 kts | 108° |
| 2026-05-05 00:00 | 53.35562 | -0.95100 | 26262 ft | 456 kts | 108° |
| 2026-05-05 00:00 | 53.34240 | -0.88319 | 27095 ft | 460 kts | 108° |
| 2026-05-05 00:00 | 53.33244 | -0.83204 | 27736 ft | 462 kts | 108° |
| 2026-05-05 00:01 | 53.32242 | -0.78068 | 28359 ft | 464 kts | 108° |
| 2026-05-05 00:01 | 53.31247 | -0.72978 | 28935 ft | 468 kts | 108° |
| 2026-05-05 00:01 | 53.30232 | -0.67795 | 29491 ft | 471 kts | 107° |
| 2026-05-05 00:01 | 53.29207 | -0.62577 | 30036 ft | 474 kts | 107° |
| 2026-05-05 00:02 | 53.28169 | -0.57312 | 30470 ft | 477 kts | 107° |
| 2026-05-05 00:02 | 53.27129 | -0.52046 | 30842 ft | 480 kts | 107° |
| 2026-05-05 00:02 | 53.26072 | -0.46716 | 31217 ft | 483 kts | 107° |
| 2026-05-05 00:02 | 53.25011 | -0.41374 | 31590 ft | 485 kts | 107° |
| 2026-05-05 00:03 | 53.23947 | -0.36042 | 32262 ft | 480 kts | 107° |
| 2026-05-05 00:03 | 53.22908 | -0.30847 | 32916 ft | 477 kts | 107° |
| 2026-05-05 00:03 | 53.21843 | -0.25534 | 33419 ft | 476 kts | 107° |